Česky Dansk Deutsch English Español Suomi Français Magyar Italiano Nederlands norsk Polski Português svenska Türkçe

 

Het Weer

San Ignacio De Velasco (Bolivië)

23:00, 24 juli 2016 (GMT)

NWNNE
WE
SWSSE
Home            
San Ignacio De Velasco Concepcion San Jose De Chiquitos San Javier Ascencion De Guarayos Robore Viru-Viru Santa Cruz / El Trompillo Vilhena Aeroporto Puerto Suarez Trinidad Corumba Magdalena Camiri Nueva Asuncion San Ignacio De Moxos Cuiaba Aeroporto Sucre San Joaquin Santa Ana Cochabamba Villamontes Potosi

Om een weerknop op uw website of weblog te plaatsen, copieer onderstaande code en plak die in uw pagina. In het eerste vakje staat HTML-code, in het tweede vakje UBB-code.


Add to Google

Details

Visibility:Greater than 10000 m, 10 km, 32800 ft, 6.2 miles
Temperature:28°C, 82°F
Gefühlte Temperatur:28°C, 83°F
Dew-point:18°C, 64°F
Atmospheric pressure:1014 hPa, 760.6 mmHg, 29.94 inHg, 1.001 atm
Relative humidity:54.6 %
METAR:SLSI 242300Z 00000KT 9999 NSC 28/18 Q1014

Snelkoppelingen

Actuele weersinformatie van de hele wereld. Voeg locaties toe met het plus (+) symbool. Deze snelkoppelingen kunnen worden toegevoegd aan Google.

Lid van de Technetium groep

website free tracking
StatCounter NetStat W3C Validator

27-10-2020 05:21:23
astro.technetium.be money.technetium.be phote.technetium.be tafeltennistafel.technetium.be www.ligfiets.net